Gateway, Arkansas
Current Conditions -  °F | °C
As of 11:57 PM on Tuesday 27 Jan 2015 (Local Time) from KROG Reporting Station
Clear Clear  
Wind Chill: 42°   Ceiling: Unl
Heat Index: 46°   Visibility: 10mi
Dew Point: 30°   Wind: 8mph
Humidity: 54%   Direction: 110°ESE
Pressure: 30.1"   Gusts: NA
Location:  36.49°N, 93.93°W
Report Text: KROG 280557Z AUTO 11007KT 10SM CLR 08/M01 A3010 RMK AO2 SLP191 T00781011 10150 20072 55006 TSNO
Loading
Personal Weather Stations






























Interactive Weather Map New forecast layout! Learn more

10-Day Weather Forecast

Advertisements
Track Severe Weather on mobile